createdAt,value
2023-04-07T00:03:35.945Z,45.27
2023-04-07T00:06:04.392Z,45.29
2023-04-07T00:08:32.890Z,45.21
2023-04-07T00:11:01.220Z,45.12
2023-04-07T00:13:30.609Z,44.88
2023-04-07T00:15:59.070Z,44.70
2023-04-07T00:18:27.469Z,44.73
2023-04-07T00:20:56.072Z,44.73
2023-04-07T00:23:24.687Z,44.55
2023-04-07T00:25:52.983Z,44.47
2023-04-07T00:28:21.099Z,44.22
2023-04-07T00:30:49.118Z,44.15
2023-04-07T00:33:17.889Z,44.20
2023-04-07T00:35:46.824Z,43.92
2023-04-07T00:38:15.516Z,43.79
2023-04-07T00:40:44.125Z,43.54
2023-04-07T00:43:12.684Z,43.70
2023-04-07T00:45:41.216Z,43.51
2023-04-07T00:48:10.792Z,43.41
2023-04-07T00:50:39.446Z,43.13
2023-04-07T00:53:08.791Z,43.02
2023-04-07T00:55:37.148Z,43.13
2023-04-07T00:58:05.694Z,42.96
2023-04-07T01:00:43.249Z,42.69
2023-04-07T01:03:20.983Z,42.55
2023-04-07T01:05:58.850Z,42.53
2023-04-07T01:08:33.764Z,42.44
2023-04-07T01:11:20.836Z,42.11
2023-04-07T01:13:54.257Z,42.24
2023-04-07T01:16:36.376Z,41.66
2023-04-07T01:19:16.029Z,41.59
2023-04-07T01:21:48.485Z,41.27
2023-04-07T01:24:25.548Z,41.19
2023-04-07T01:27:05.703Z,41.14
2023-04-07T01:29:39.352Z,40.73
2023-04-07T01:32:14.324Z,40.96
2023-04-07T01:34:45.647Z,40.61
2023-04-07T01:37:16.174Z,40.35
2023-04-07T01:39:44.773Z,40.28
2023-04-07T01:42:15.516Z,40.27
2023-04-07T01:44:45.914Z,40.13
2023-04-07T01:47:16.726Z,39.97
2023-04-07T01:49:47.268Z,40.05
2023-04-07T01:52:16.886Z,39.75
2023-04-07T01:54:47.414Z,39.62
2023-04-07T01:57:15.433Z,39.44
2023-04-07T01:59:44.465Z,39.38
2023-04-07T02:02:13.294Z,39.29
2023-04-07T02:05:09.763Z,39.29
2023-04-07T02:07:46.841Z,38.98
2023-04-07T02:10:17.550Z,38.73
2023-04-07T02:12:47.695Z,38.86
2023-04-07T02:15:16.869Z,38.73
2023-04-07T02:17:53.675Z,38.72
2023-04-07T02:20:23.959Z,38.71
2023-04-07T02:22:52.084Z,38.61
2023-04-07T02:25:29.006Z,38.44
2023-04-07T02:27:59.147Z,38.58
2023-04-07T02:30:28.508Z,38.47
2023-04-07T02:32:56.846Z,38.33
2023-04-07T02:35:25.129Z,38.23
2023-04-07T02:37:54.522Z,38.15
2023-04-07T02:40:23.232Z,38.22
2023-04-07T02:42:51.755Z,38.42
2023-04-07T02:45:19.914Z,37.91
2023-04-07T02:47:48.361Z,37.97
2023-04-07T02:50:16.988Z,38.11
2023-04-07T02:52:45.291Z,37.61
2023-04-07T02:55:15.394Z,37.69
2023-04-07T02:57:43.605Z,37.02
2023-04-07T03:00:12.674Z,37.20
2023-04-07T03:02:42.404Z,36.65
2023-04-07T03:05:10.536Z,36.65
2023-04-07T03:07:38.535Z,36.79
2023-04-07T03:10:07.821Z,36.64
2023-04-07T03:12:36.012Z,36.43
2023-04-07T03:15:05.436Z,36.38
2023-04-07T03:17:35.215Z,36.54
2023-04-07T03:20:03.344Z,36.44
2023-04-07T03:22:31.494Z,36.53
2023-04-07T03:24:59.616Z,36.58
2023-04-07T03:27:29.450Z,36.61
2023-04-07T03:29:58.141Z,36.65
2023-04-07T03:32:26.891Z,36.43
2023-04-07T03:34:55.534Z,36.61
2023-04-07T03:37:23.875Z,36.69
2023-04-07T03:39:53.517Z,36.51
2023-04-07T03:42:22.556Z,36.32
2023-04-07T03:44:51.304Z,36.06
2023-04-07T03:47:19.880Z,35.85
2023-04-07T03:49:48.453Z,36.08
2023-04-07T03:52:17.231Z,35.97
2023-04-07T03:54:45.420Z,35.99
2023-04-07T03:57:14.068Z,35.84
2023-04-07T03:59:42.217Z,35.47
2023-04-07T04:02:11.971Z,35.57
2023-04-07T04:04:41.765Z,35.81
2023-04-07T04:07:10.037Z,35.44
2023-04-07T04:09:38.208Z,35.68
2023-04-07T04:12:06.501Z,35.08
2023-04-07T04:14:35.640Z,35.11
2023-04-07T04:17:05.973Z,35.26
2023-04-07T04:19:35.584Z,34.99
2023-04-07T04:22:04.370Z,35.21
2023-04-07T04:24:33.358Z,35.19
2023-04-07T04:27:01.585Z,35.01
2023-04-07T04:29:31.163Z,34.96
2023-04-07T04:32:01.476Z,34.78
2023-04-07T04:34:29.477Z,34.74
2023-04-07T04:36:59.018Z,34.80
2023-04-07T04:39:27.258Z,34.47
2023-04-07T04:41:56.586Z,34.49
2023-04-07T04:44:24.817Z,34.49
2023-04-07T04:46:53.910Z,34.20
2023-04-07T04:49:22.231Z,33.93
2023-04-07T04:51:51.097Z,34.15
2023-04-07T04:54:20.032Z,34.16
2023-04-07T04:56:48.461Z,34.01
2023-04-07T04:59:16.495Z,33.96
2023-04-07T05:01:45.160Z,33.77
2023-04-07T05:04:14.319Z,33.76
2023-04-07T05:06:42.598Z,33.68
2023-04-07T05:09:10.874Z,33.55
2023-04-07T05:11:41.930Z,33.61
2023-04-07T05:14:10.661Z,33.24
2023-04-07T05:16:38.853Z,33.19
2023-04-07T05:19:07.256Z,33.20
2023-04-07T05:21:36.117Z,33.27
2023-04-07T05:24:04.615Z,33.01
2023-04-07T05:26:35.882Z,32.77
2023-04-07T05:29:04.498Z,32.73
2023-04-07T05:31:32.849Z,32.72
2023-04-07T05:34:00.923Z,32.57
2023-04-07T05:36:28.989Z,32.40
2023-04-07T05:38:57.278Z,32.38
2023-04-07T05:41:25.310Z,32.38
2023-04-07T05:43:53.513Z,32.34
2023-04-07T05:46:22.385Z,32.34
2023-04-07T05:48:50.392Z,32.09
2023-04-07T05:51:18.563Z,32.19
2023-04-07T05:53:48.034Z,32.16
2023-04-07T05:56:16.271Z,32.29
2023-04-07T05:58:44.374Z,32.15
2023-04-07T06:01:12.529Z,32.09
2023-04-07T06:03:41.763Z,32.00
2023-04-07T06:06:10.411Z,31.99
2023-04-07T06:08:39.153Z,32.00
2023-04-07T06:11:07.649Z,32.17
2023-04-07T06:13:36.648Z,32.01
2023-04-07T06:16:05.618Z,31.78
2023-04-07T06:18:34.056Z,31.86
2023-04-07T06:21:03.246Z,31.66
2023-04-07T06:23:32.138Z,31.67
2023-04-07T06:26:00.308Z,31.91
2023-04-07T06:28:28.843Z,31.47
2023-04-07T06:30:58.276Z,31.53
2023-04-07T06:33:27.605Z,31.48
2023-04-07T06:35:57.122Z,30.87
2023-04-07T06:38:25.747Z,29.76
2023-04-07T06:40:53.951Z,28.89
2023-04-07T06:43:22.278Z,28.09
2023-04-07T06:45:51.271Z,27.25
2023-04-07T06:48:20.209Z,26.49
2023-04-07T06:50:52.528Z,25.88
2023-04-07T06:53:20.912Z,25.94
2023-04-07T06:55:48.902Z,25.83
2023-04-07T06:58:17.975Z,26.05
2023-04-07T07:00:46.563Z,25.88
2023-04-07T07:03:18.620Z,26.02
2023-04-07T07:05:50.366Z,25.98
2023-04-07T07:08:18.529Z,26.08
2023-04-07T07:10:47.276Z,26.28
2023-04-07T07:13:15.796Z,25.95
2023-04-07T07:15:43.848Z,25.86
2023-04-07T07:18:12.860Z,25.84
2023-04-07T07:20:41.753Z,25.89
2023-04-07T07:23:10.125Z,25.82
2023-04-07T07:25:38.426Z,25.45
2023-04-07T07:28:06.712Z,25.62
2023-04-07T07:30:35.490Z,25.51
2023-04-07T07:33:03.893Z,25.23
2023-04-07T07:35:32.874Z,25.16
2023-04-07T07:38:01.457Z,25.30
2023-04-07T07:40:30.272Z,25.09
2023-04-07T07:43:01.952Z,24.95
2023-04-07T07:45:30.653Z,24.99
2023-04-07T07:47:58.822Z,25.03
2023-04-07T07:50:27.908Z,24.93
2023-04-07T07:52:56.886Z,24.81
2023-04-07T07:55:26.479Z,24.97
2023-04-07T07:57:54.955Z,25.12
2023-04-07T08:00:23.510Z,25.27
2023-04-07T08:02:52.548Z,25.54
2023-04-07T08:05:21.394Z,25.91
2023-04-07T08:07:49.489Z,26.35
2023-04-07T08:10:18.223Z,27.10
2023-04-07T08:12:46.929Z,27.86
2023-04-07T08:15:15.611Z,28.48
2023-04-07T08:17:44.349Z,29.00
2023-04-07T08:20:13.378Z,30.77
2023-04-07T08:22:42.209Z,31.84
2023-04-07T08:25:12.013Z,33.29
2023-04-07T08:27:40.379Z,34.20
2023-04-07T08:30:08.652Z,35.44
2023-04-07T08:32:41.824Z,36.19
2023-04-07T08:35:11.383Z,37.01
2023-04-07T08:37:40.967Z,37.56
2023-04-07T08:40:10.797Z,38.01
2023-04-07T08:42:43.199Z,38.41
2023-04-07T08:45:13.140Z,39.94
2023-04-07T08:47:42.443Z,40.19
2023-04-07T08:50:12.363Z,40.04
2023-04-07T08:52:53.941Z,39.92
2023-04-07T08:55:22.785Z,40.17
2023-04-07T08:57:53.025Z,40.04
2023-04-07T09:00:22.420Z,40.20
2023-04-07T09:02:52.573Z,40.06
2023-04-07T09:05:22.989Z,40.05
2023-04-07T09:07:51.269Z,40.05
2023-04-07T09:10:20.022Z,39.81
2023-04-07T09:12:48.338Z,39.81
2023-04-07T09:15:17.589Z,40.14
2023-04-07T09:17:47.093Z,39.86
2023-04-07T09:20:16.179Z,40.35
2023-04-07T09:22:45.351Z,40.17
2023-04-07T09:25:18.545Z,40.17
2023-04-07T09:28:01.593Z,40.49
2023-04-07T09:30:33.205Z,41.12
2023-04-07T09:33:02.321Z,41.31
2023-04-07T09:35:31.093Z,40.99
2023-04-07T09:38:04.115Z,41.00
2023-04-07T09:40:32.864Z,40.25
2023-04-07T09:43:03.140Z,40.25
2023-04-07T09:45:35.203Z,40.52
2023-04-07T09:48:07.343Z,40.11
2023-04-07T09:50:41.732Z,39.47
2023-04-07T09:53:12.097Z,38.89
2023-04-07T09:55:40.876Z,38.95
2023-04-07T09:58:12.959Z,38.35
2023-04-07T10:00:42.030Z,38.27
2023-04-07T10:03:10.665Z,38.49
2023-04-07T10:05:39.457Z,39.33
2023-04-07T10:08:08.469Z,39.26
2023-04-07T10:10:41.929Z,39.90
2023-04-07T10:13:10.937Z,40.06
2023-04-07T10:15:39.818Z,39.14
2023-04-07T10:18:10.985Z,39.22
2023-04-07T10:20:41.067Z,38.89
2023-04-07T10:23:51.374Z,38.70
2023-04-07T10:26:23.487Z,37.92
2023-04-07T10:29:09.453Z,36.89
2023-04-07T10:31:39.654Z,36.43
2023-04-07T10:34:08.090Z,35.79
2023-04-07T10:37:12.260Z,36.17
2023-04-07T10:39:41.031Z,36.30
2023-04-07T10:42:37.823Z,36.61
2023-04-07T10:45:10.436Z,37.57
2023-04-07T10:48:11.625Z,36.46
2023-04-07T10:50:40.136Z,36.20
2023-04-07T10:53:10.667Z,35.18
2023-04-07T10:55:46.893Z,35.04
2023-04-07T10:58:29.188Z,35.83
2023-04-07T11:01:06.153Z,36.31
2023-04-07T11:03:38.114Z,36.31
2023-04-07T11:06:08.113Z,36.71
2023-04-07T11:08:41.531Z,37.30
2023-04-07T11:11:15.377Z,36.09
2023-04-07T11:13:46.371Z,36.53
2023-04-07T11:16:20.291Z,36.00
2023-04-07T11:18:48.916Z,35.47
2023-04-07T11:21:20.188Z,35.97
2023-04-07T11:23:49.245Z,35.85
2023-04-07T11:26:18.274Z,36.15
2023-04-07T11:28:53.694Z,35.21
2023-04-07T11:31:23.421Z,35.21
2023-04-07T11:33:54.394Z,35.32
2023-04-07T11:36:38.379Z,35.21
2023-04-07T11:39:19.087Z,35.35
2023-04-07T11:41:49.664Z,35.90
2023-04-07T11:44:18.049Z,35.47
2023-04-07T11:47:00.376Z,35.29
2023-04-07T11:49:29.425Z,35.27
2023-04-07T11:52:00.750Z,35.31
2023-04-07T11:54:46.608Z,34.73
2023-04-07T11:57:26.150Z,34.36
2023-04-07T12:00:08.618Z,33.99
2023-04-07T12:02:38.046Z,33.41
2023-04-07T12:05:07.128Z,33.86
2023-04-07T12:07:39.705Z,34.12
2023-04-07T12:10:24.957Z,34.37
2023-04-07T12:12:55.266Z,33.31
2023-04-07T12:15:24.042Z,30.20
2023-04-07T12:17:54.977Z,30.19
2023-04-07T12:20:24.490Z,30.59
2023-04-07T12:22:52.819Z,30.94
2023-04-07T12:25:21.044Z,30.76
2023-04-07T12:27:49.381Z,30.65
2023-04-07T12:30:17.709Z,30.25
2023-04-07T12:32:46.234Z,28.63
2023-04-07T12:35:14.500Z,27.19
2023-04-07T12:37:42.682Z,27.63
2023-04-07T12:40:11.598Z,28.25
2023-04-07T12:42:40.101Z,28.46
2023-04-07T12:45:09.377Z,28.49
2023-04-07T12:47:37.495Z,28.93
2023-04-07T12:50:06.950Z,29.72
2023-04-07T12:52:35.169Z,30.13
2023-04-07T12:55:03.497Z,29.77
2023-04-07T12:57:31.646Z,29.46
2023-04-07T13:00:01.493Z,29.37
2023-04-07T13:02:30.027Z,29.39
2023-04-07T13:04:58.799Z,29.35
2023-04-07T13:07:27.020Z,29.13
2023-04-07T13:09:55.534Z,29.37
2023-04-07T13:12:25.409Z,28.93
2023-04-07T13:15:00.114Z,27.48
2023-04-07T13:17:29.566Z,26.25
2023-04-07T13:19:58.308Z,25.58
2023-04-07T13:22:26.315Z,26.91
2023-04-07T13:24:55.367Z,27.02
2023-04-07T13:27:23.691Z,26.80
2023-04-07T13:29:51.832Z,26.53
2023-04-07T13:32:20.141Z,26.82
2023-04-07T13:34:48.220Z,27.07
2023-04-07T13:37:18.777Z,26.06
2023-04-07T13:39:47.226Z,25.74
2023-04-07T13:42:15.700Z,25.25
2023-04-07T13:44:43.943Z,25.42
2023-04-07T13:47:12.730Z,25.62
2023-04-07T13:49:41.663Z,24.63
2023-04-07T13:52:10.359Z,24.32
2023-04-07T13:54:38.789Z,25.04
2023-04-07T13:57:06.962Z,25.36
2023-04-07T13:59:35.336Z,25.29
2023-04-07T14:02:04.348Z,24.72
2023-04-07T14:04:32.977Z,25.18
2023-04-07T14:07:01.117Z,25.86
2023-04-07T14:09:29.479Z,25.70
2023-04-07T14:11:58.575Z,26.52
2023-04-07T14:14:27.239Z,26.36
2023-04-07T14:16:55.626Z,26.55
2023-04-07T14:19:24.903Z,26.97
2023-04-07T14:21:53.847Z,26.73
2023-04-07T14:24:22.414Z,26.86
2023-04-07T14:26:50.779Z,26.86
2023-04-07T14:29:18.857Z,27.02
2023-04-07T14:31:47.210Z,27.33
2023-04-07T14:34:15.721Z,27.81
2023-04-07T14:36:57.297Z,28.26
2023-04-07T14:39:25.894Z,29.08
2023-04-07T14:41:54.171Z,29.36
2023-04-07T14:44:23.611Z,29.93
2023-04-07T14:46:51.692Z,30.68
2023-04-07T14:49:20.723Z,31.17
2023-04-07T14:51:50.066Z,32.00
2023-04-07T14:54:18.230Z,31.89
2023-04-07T14:56:46.320Z,32.54
2023-04-07T14:59:14.774Z,32.65
2023-04-07T15:01:43.411Z,33.02
2023-04-07T15:04:11.708Z,33.56
2023-04-07T15:06:45.089Z,34.15
2023-04-07T15:09:14.533Z,34.39
2023-04-07T15:11:43.180Z,34.69
2023-04-07T15:14:11.620Z,35.37
2023-04-07T15:16:39.746Z,35.40
2023-04-07T15:19:08.558Z,35.08
2023-04-07T15:21:37.337Z,34.66
2023-04-07T15:24:06.399Z,34.68
2023-04-07T15:26:34.768Z,34.50
2023-04-07T15:29:03.590Z,34.82
2023-04-07T15:31:32.650Z,34.87
2023-04-07T15:34:00.765Z,35.03
2023-04-07T15:36:29.132Z,35.22
2023-04-07T15:38:59.143Z,34.92
2023-04-07T15:41:27.217Z,35.15
2023-04-07T15:43:56.099Z,35.50
2023-04-07T15:46:25.253Z,35.85
2023-04-07T15:48:55.628Z,36.33
2023-04-07T15:51:25.082Z,36.75
2023-04-07T15:53:54.687Z,36.87
2023-04-07T15:56:22.840Z,36.59
2023-04-07T15:58:52.425Z,36.41
2023-04-07T16:01:21.158Z,36.46
2023-04-07T16:03:50.839Z,36.72
2023-04-07T16:06:19.778Z,36.91
2023-04-07T16:08:48.346Z,36.95
2023-04-07T16:11:16.673Z,37.10
2023-04-07T16:13:46.651Z,37.32
2023-04-07T16:16:15.584Z,37.47
2023-04-07T16:18:45.509Z,37.34
2023-04-07T16:21:15.157Z,37.25
2023-04-07T16:23:43.726Z,37.28
2023-04-07T16:26:12.364Z,37.67
2023-04-07T16:28:40.517Z,38.03
2023-04-07T16:31:09.108Z,38.19
2023-04-07T16:33:37.552Z,38.53
2023-04-07T16:36:07.191Z,38.67
2023-04-07T16:38:35.393Z,38.66
2023-04-07T16:41:07.922Z,38.66
2023-04-07T16:43:36.207Z,38.58
2023-04-07T16:46:05.350Z,38.46
2023-04-07T16:48:36.034Z,38.53
2023-04-07T16:51:04.533Z,38.70
2023-04-07T16:53:33.535Z,38.89
2023-04-07T16:56:02.168Z,38.73
2023-04-07T16:58:30.793Z,38.60
2023-04-07T17:00:59.467Z,38.53
2023-04-07T17:03:28.484Z,38.95
2023-04-07T17:05:57.320Z,38.87
2023-04-07T17:08:27.782Z,38.95
2023-04-07T17:10:57.225Z,38.61
2023-04-07T17:13:25.449Z,38.83
2023-04-07T17:15:54.124Z,38.91
2023-04-07T17:18:23.118Z,39.13
2023-04-07T17:20:51.944Z,39.17
2023-04-07T17:23:20.474Z,39.36
2023-04-07T17:25:52.114Z,39.51
2023-04-07T17:28:20.224Z,39.50
2023-04-07T17:30:49.130Z,39.56
2023-04-07T17:33:19.067Z,39.66
2023-04-07T17:35:48.348Z,39.69
2023-04-07T17:38:16.980Z,39.85
2023-04-07T17:40:46.027Z,39.89
2023-04-07T17:43:15.377Z,39.84
2023-04-07T17:45:43.664Z,40.20
2023-04-07T17:48:12.481Z,40.60
2023-04-07T17:50:41.463Z,41.00
2023-04-07T17:53:10.622Z,41.22
2023-04-07T17:55:39.706Z,41.54
2023-04-07T17:58:08.392Z,41.86
2023-04-07T18:00:37.284Z,42.00
2023-04-07T18:03:06.063Z,42.32
2023-04-07T18:05:34.482Z,42.42
2023-04-07T18:08:03.240Z,42.44
2023-04-07T18:10:31.935Z,42.79
2023-04-07T18:13:00.131Z,43.09
2023-04-07T18:15:29.205Z,43.15
2023-04-07T18:17:58.592Z,43.25
2023-04-07T18:20:27.886Z,43.52
2023-04-07T18:22:56.583Z,44.01
2023-04-07T18:25:25.534Z,44.19
2023-04-07T18:27:54.254Z,44.37
2023-04-07T18:30:22.952Z,44.41
2023-04-07T18:32:52.652Z,44.53
2023-04-07T18:35:22.062Z,44.49
2023-04-07T18:37:50.119Z,44.65
2023-04-07T18:40:18.510Z,44.83
2023-04-07T18:42:47.035Z,44.77
2023-04-07T18:45:15.669Z,45.22
2023-04-07T18:47:45.695Z,45.38
2023-04-07T18:50:14.473Z,45.45
2023-04-07T18:52:42.742Z,45.55
2023-04-07T18:55:11.692Z,45.58
2023-04-07T18:57:39.916Z,45.67
2023-04-07T19:00:09.195Z,45.93
2023-04-07T19:02:38.443Z,45.92
2023-04-07T19:05:07.698Z,46.01
2023-04-07T19:07:36.281Z,46.32
2023-04-07T19:10:06.454Z,46.40
2023-04-07T19:12:34.438Z,46.80
2023-04-07T19:15:02.657Z,46.69
2023-04-07T19:17:31.656Z,46.88
2023-04-07T19:20:00.553Z,47.01
2023-04-07T19:22:29.282Z,47.10
2023-04-07T19:24:58.528Z,47.23
2023-04-07T19:27:27.953Z,47.24
2023-04-07T19:29:57.160Z,47.35
2023-04-07T19:32:25.446Z,47.46
2023-04-07T19:34:53.580Z,47.47
2023-04-07T19:37:22.236Z,47.46
2023-04-07T19:40:01.561Z,47.60
2023-04-07T19:42:32.070Z,47.76
2023-04-07T19:45:00.274Z,47.71
2023-04-07T19:47:29.896Z,47.60
2023-04-07T19:49:58.203Z,47.81
2023-04-07T19:52:26.723Z,47.83
2023-04-07T19:54:56.108Z,48.12
2023-04-07T19:57:24.336Z,48.23
2023-04-07T19:59:53.253Z,48.28
2023-04-07T20:02:21.751Z,48.63
2023-04-07T20:04:50.452Z,48.66
2023-04-07T20:07:19.521Z,48.73
2023-04-07T20:09:47.784Z,48.80
2023-04-07T20:12:16.488Z,48.84
2023-04-07T20:14:46.040Z,48.79
2023-04-07T20:17:14.089Z,48.71
2023-04-07T20:19:42.517Z,48.77
2023-04-07T20:22:12.356Z,48.72
2023-04-07T20:24:41.368Z,48.49
2023-04-07T20:27:10.282Z,48.57
2023-04-07T20:29:39.230Z,48.61
2023-04-07T20:32:07.903Z,48.56
2023-04-07T20:34:36.555Z,48.61
2023-04-07T20:37:05.547Z,48.81
2023-04-07T20:39:34.665Z,48.76
2023-04-07T20:42:04.076Z,48.73
2023-04-07T20:44:32.190Z,48.82
2023-04-07T20:47:07.507Z,48.89
2023-04-07T20:49:36.181Z,48.73
2023-04-07T20:52:06.315Z,48.96
2023-04-07T20:54:35.287Z,48.94
2023-04-07T20:57:05.741Z,48.96
2023-04-07T20:59:34.514Z,49.18
2023-04-07T21:02:03.347Z,49.11
2023-04-07T21:04:32.850Z,49.10
2023-04-07T21:07:01.076Z,49.17
2023-04-07T21:09:30.298Z,49.10
2023-04-07T21:12:00.373Z,49.27
2023-04-07T21:14:28.476Z,49.21
2023-04-07T21:16:57.415Z,49.33
2023-04-07T21:19:25.801Z,49.56
2023-04-07T21:21:54.453Z,49.57
2023-04-07T21:24:22.561Z,49.68
2023-04-07T21:26:53.678Z,49.62
2023-04-07T21:29:22.303Z,49.68
2023-04-07T21:31:50.669Z,49.86
2023-04-07T21:34:19.512Z,50.00
2023-04-07T21:36:48.848Z,50.03
2023-04-07T21:39:18.385Z,50.15
2023-04-07T21:41:46.765Z,50.08
2023-04-07T21:44:15.404Z,49.83
2023-04-07T21:46:43.777Z,49.79
2023-04-07T21:49:13.553Z,49.75
2023-04-07T21:51:41.756Z,49.58
2023-04-07T21:54:10.179Z,49.69
2023-04-07T21:56:39.241Z,49.64
2023-04-07T21:59:07.477Z,49.53
2023-04-07T22:01:35.776Z,49.38
2023-04-07T22:04:04.324Z,48.88
2023-04-07T22:06:32.962Z,48.58
2023-04-07T22:09:02.238Z,48.33
2023-04-07T22:11:30.765Z,47.93
2023-04-07T22:13:59.036Z,48.03
2023-04-07T22:16:28.358Z,47.41
2023-04-07T22:18:57.939Z,47.33
2023-04-07T22:21:26.952Z,47.14
2023-04-07T22:23:55.576Z,46.83
2023-04-07T22:26:27.210Z,47.07
2023-04-07T22:28:56.575Z,46.95
2023-04-07T22:31:25.404Z,46.72
2023-04-07T22:33:54.998Z,46.67
2023-04-07T22:36:23.672Z,46.81
2023-04-07T22:38:52.617Z,46.74
2023-04-07T22:41:22.139Z,46.52
2023-04-07T22:43:50.996Z,46.32
2023-04-07T22:46:20.464Z,46.28
2023-04-07T22:48:49.322Z,46.23
2023-04-07T22:51:18.147Z,46.14
2023-04-07T22:53:46.684Z,45.88
2023-04-07T22:56:15.361Z,45.60
2023-04-07T22:58:44.042Z,45.54
2023-04-07T23:01:13.091Z,45.35
2023-04-07T23:03:41.551Z,45.17
2023-04-07T23:06:10.382Z,44.97
2023-04-07T23:08:39.575Z,44.67
2023-04-07T23:11:10.784Z,44.41
2023-04-07T23:13:40.101Z,44.23
2023-04-07T23:16:17.790Z,44.25
2023-04-07T23:18:46.190Z,44.02
2023-04-07T23:21:14.917Z,43.94
2023-04-07T23:23:43.037Z,43.90
2023-04-07T23:26:11.710Z,43.88
2023-04-07T23:28:39.873Z,44.05
2023-04-07T23:31:08.375Z,44.05
2023-04-07T23:33:37.650Z,43.96
2023-04-07T23:36:06.673Z,44.11
2023-04-07T23:38:34.930Z,44.35
2023-04-07T23:41:03.628Z,44.37
2023-04-07T23:43:33.321Z,44.53
2023-04-07T23:46:02.575Z,44.52
2023-04-07T23:48:31.691Z,44.54
2023-04-07T23:51:00.323Z,44.63
2023-04-07T23:53:29.137Z,44.70
2023-04-07T23:55:58.772Z,44.66
2023-04-07T23:58:27.346Z,44.83
